Time;durP1;ratioP1;P1;durP2;ratioP2;P2;SDS_P1;SDS_P2;PMS_P1;PMS_P2;Temp;Humidity;BMP_temperature;BMP_pressure;BME280_temperature;BME280_humidity;BME280_pressure;Samples;Min_cycle;Max_cycle;Signal;HPM_P1;HPM_P2
2022/11/06 00:00:05;;;;;;;14.30;7.35;;;;;;;;;;5125981;27;20047;-68
2022/11/06 00:02:31;;;;;;;10.43;6.65;;;;;;;;;;5117834;27;20075;-69
2022/11/06 00:06:46;;;;;;;12.25;6.55;;;;;;;;;;5125057;27;20513;-70
2022/11/06 00:07:47;;;;;;;10.75;6.43;;;;;;;;;;5089905;27;20055;-69
2022/11/06 00:10:14;;;;;;;8.50;6.22;;;;;;;;;;5100961;27;20063;-69
2022/11/06 00:12:40;;;;;;;8.18;5.45;;;;;;;;;;5082659;27;20032;-69
2022/11/06 00:15:07;;;;;;;13.18;6.88;;;;;;;;;;5124065;27;20636;-70
2022/11/06 00:17:33;;;;;;;11.93;8.00;;;;;;;;;;5122501;27;20074;-69
2022/11/06 00:19:59;;;;;;;11.27;5.90;;;;;;;;;;5118775;27;20548;-68
2022/11/06 00:22:25;;;;;;;11.38;6.53;;;;;;;;;;5125570;27;20506;-68
2022/11/06 00:24:52;;;;;;;13.35;6.15;;;;;;;;;;5125401;27;20039;-68
2022/11/06 00:27:18;;;;;;;14.60;7.50;;;;;;;;;;5122365;27;20039;-68
2022/11/06 00:29:44;;;;;;;10.70;5.90;;;;;;;;;;5120674;27;20069;-69
2022/11/06 00:32:11;;;;;;;9.07;5.07;;;;;;;;;;5104008;27;20053;-68
2022/11/06 00:34:37;;;;;;;11.88;6.57;;;;;;;;;;5089077;27;20824;-69
2022/11/06 00:37:03;;;;;;;10.57;6.00;;;;;;;;;;5107522;27;20246;-69
2022/11/06 00:39:29;;;;;;;13.95;6.45;;;;;;;;;;5122151;27;20047;-70
2022/11/06 00:41:55;;;;;;;9.30;6.93;;;;;;;;;;5087288;27;20046;-70
2022/11/06 00:44:21;;;;;;;12.10;7.28;;;;;;;;;;5117376;27;20039;-69
2022/11/06 00:46:47;;;;;;;18.33;9.07;;;;;;;;;;5078038;27;20046;-69
2022/11/06 00:49:13;;;;;;;12.93;8.77;;;;;;;;;;5122423;27;20043;-68
2022/11/06 00:51:39;;;;;;;13.80;6.90;;;;;;;;;;5091274;27;20054;-69
2022/11/06 00:54:06;;;;;;;17.55;7.97;;;;;;;;;;5115563;27;20051;-68
2022/11/06 00:56:33;;;;;;;15.02;9.00;;;;;;;;;;5119566;27;20047;-68
2022/11/06 00:59:00;;;;;;;15.70;9.63;;;;;;;;;;5118463;27;20103;-69
2022/11/06 01:01:28;;;;;;;19.73;11.80;;;;;;;;;;5123854;27;20047;-68
2022/11/06 01:03:55;;;;;;;27.25;11.32;;;;;;;;;;5119410;27;20039;-68
2022/11/06 01:06:23;;;;;;;14.18;9.07;;;;;;;;;;5124067;27;20046;-67
2022/11/06 01:08:50;;;;;;;21.20;11.63;;;;;;;;;;5102925;27;20045;-68
2022/11/06 01:11:20;;;;;;;17.90;11.20;;;;;;;;;;5092468;27;20047;-69
2022/11/06 01:13:48;;;;;;;18.80;12.13;;;;;;;;;;5118596;27;20068;-68
2022/11/06 01:16:15;;;;;;;20.05;12.70;;;;;;;;;;5102747;27;20338;-67
2022/11/06 01:18:42;;;;;;;17.98;11.90;;;;;;;;;;5100234;27;20115;-69
2022/11/06 01:21:13;;;;;;;19.13;11.55;;;;;;;;;;5124217;27;20044;-68
2022/11/06 01:23:39;;;;;;;17.05;11.38;;;;;;;;;;5125168;27;20043;-69
2022/11/06 01:26:06;;;;;;;19.00;11.40;;;;;;;;;;5118806;27;20110;-68
2022/11/06 01:28:33;;;;;;;16.92;12.35;;;;;;;;;;5089437;27;20045;-69
2022/11/06 01:31:06;;;;;;;16.60;10.55;;;;;;;;;;5121318;27;20070;-69
2022/11/06 01:33:32;;;;;;;15.33;10.93;;;;;;;;;;5102810;27;20053;-69
2022/11/06 01:35:59;;;;;;;17.80;9.63;;;;;;;;;;5094845;27;20312;-68
2022/11/06 01:38:26;;;;;;;19.55;12.18;;;;;;;;;;5124154;27;20045;-69
2022/11/06 01:40:52;;;;;;;17.63;9.68;;;;;;;;;;5110833;27;20136;-69
2022/11/06 01:43:26;;;;;;;23.15;12.30;;;;;;;;;;5119968;27;20078;-69
2022/11/06 01:45:53;;;;;;;18.83;11.77;;;;;;;;;;5117566;27;20055;-70
2022/11/06 01:48:26;;;;;;;17.30;10.23;;;;;;;;;;5121273;27;20039;-69
2022/11/06 01:50:54;;;;;;;17.42;10.95;;;;;;;;;;5121853;27;20142;-69
2022/11/06 01:53:21;;;;;;;14.52;10.52;;;;;;;;;;5121169;27;20073;-69
2022/11/06 01:55:50;;;;;;;16.38;10.43;;;;;;;;;;5103342;27;20100;-69
2022/11/06 01:58:19;;;;;;;21.23;12.30;;;;;;;;;;5106831;27;20046;-69
2022/11/06 02:00:45;;;;;;;16.73;10.70;;;;;;;;;;5117100;27;20043;-70
2022/11/06 02:03:12;;;;;;;12.63;9.15;;;;;;;;;;5122743;27;20043;-70
2022/11/06 02:05:38;;;;;;;16.42;11.15;;;;;;;;;;5123622;27;22212;-68
2022/11/06 02:08:05;;;;;;;18.45;13.32;;;;;;;;;;5121546;27;20046;-69
2022/11/06 02:10:32;;;;;;;14.82;10.43;;;;;;;;;;5101983;27;20039;-68
2022/11/06 02:12:58;;;;;;;20.40;12.82;;;;;;;;;;5120062;27;20043;-68
2022/11/06 02:15:43;;;;;;;20.92;12.48;;;;;;;;;;5085616;27;20050;-68
2022/11/06 02:18:29;;;;;;;17.35;13.27;;;;;;;;;;5116372;27;21971;-68
2022/11/06 02:21:14;;;;;;;21.55;12.23;;;;;;;;;;5090637;22;20044;-76
2022/11/06 02:24:07;;;;;;;15.63;12.30;;;;;;;;;;5041560;28;20952;-75
2022/11/06 02:26:53;;;;;;;14.63;8.80;;;;;;;;;;5023679;28;20049;-75
2022/11/06 02:29:20;;;;;;;18.58;11.20;;;;;;;;;;5019399;28;20131;-75
2022/11/06 02:31:48;;;;;;;18.58;12.73;;;;;;;;;;5046955;28;20037;-74
2022/11/06 02:34:15;;;;;;;17.05;10.57;;;;;;;;;;5038997;28;20041;-75
2022/11/06 02:36:45;;;;;;;17.60;13.40;;;;;;;;;;5051016;28;20048;-75
2022/11/06 02:39:14;;;;;;;17.17;12.85;;;;;;;;;;5029802;28;20040;-75
2022/11/06 02:41:43;;;;;;;16.65;11.65;;;;;;;;;;5007303;28;20045;-75
2022/11/06 02:44:11;;;;;;;21.95;13.13;;;;;;;;;;5017619;28;20808;-75
2022/11/06 02:46:43;;;;;;;14.00;9.57;;;;;;;;;;5021328;28;20044;-75
2022/11/06 02:49:29;;;;;;;18.65;13.13;;;;;;;;;;5021733;28;20127;-75
2022/11/06 02:51:58;;;;;;;19.83;12.48;;;;;;;;;;5013206;28;20408;-75
2022/11/06 02:54:26;;;;;;;23.42;14.80;;;;;;;;;;5008482;28;20462;-75
2022/11/06 02:56:54;;;;;;;15.07;12.48;;;;;;;;;;5009497;28;20123;-75
2022/11/06 02:59:22;;;;;;;19.63;12.98;;;;;;;;;;5007742;28;20392;-75
2022/11/06 03:01:55;;;;;;;18.35;12.32;;;;;;;;;;4997222;28;20044;-74
2022/11/06 03:04:27;;;;;;;12.40;7.55;;;;;;;;;;5014025;28;20047;-74
2022/11/06 03:06:57;;;;;;;19.90;13.30;;;;;;;;;;5033497;28;20036;-74
2022/11/06 03:09:27;;;;;;;20.27;13.40;;;;;;;;;;5047935;28;20105;-74
2022/11/06 03:12:01;;;;;;;22.00;11.95;;;;;;;;;;5060599;28;20049;-75
2022/11/06 03:14:30;;;;;;;19.35;13.55;;;;;;;;;;5049462;28;20064;-76
2022/11/06 03:17:00;;;;;;;21.77;14.52;;;;;;;;;;5026006;28;20745;-76
2022/11/06 03:19:45;;;;;;;19.25;15.40;;;;;;;;;;5004065;28;22021;-76
2022/11/06 03:22:14;;;;;;;22.02;14.95;;;;;;;;;;5010208;28;20087;-76
2022/11/06 03:24:58;;;;;;;23.05;14.25;;;;;;;;;;5006230;28;21291;-76
2022/11/06 03:27:49;;;;;;;22.55;13.82;;;;;;;;;;5003656;28;20037;-76
2022/11/06 03:30:15;;;;;;;20.30;12.82;;;;;;;;;;5011635;28;20403;-76
2022/11/06 03:32:47;;;;;;;19.70;15.32;;;;;;;;;;4988541;28;20216;-76
2022/11/06 03:35:26;;;;;;;18.17;14.00;;;;;;;;;;4992633;28;20049;-76
2022/11/06 03:38:00;;;;;;;22.33;14.27;;;;;;;;;;5021541;28;20051;-76
2022/11/06 03:40:28;;;;;;;19.30;13.02;;;;;;;;;;4992570;28;20048;-76
2022/11/06 03:42:56;;;;;;;24.45;12.48;;;;;;;;;;5005824;28;21083;-76
2022/11/06 03:45:24;;;;;;;17.48;13.10;;;;;;;;;;5009174;28;20044;-76
2022/11/06 03:47:59;;;;;;;15.45;11.82;;;;;;;;;;4982335;28;20037;-76
2022/11/06 03:50:35;;;;;;;18.13;11.55;;;;;;;;;;5010450;28;20045;-76
2022/11/06 03:53:06;;;;;;;15.00;10.80;;;;;;;;;;5007884;28;20044;-76
2022/11/06 03:55:36;;;;;;;16.05;11.13;;;;;;;;;;5007874;28;20098;-76
2022/11/06 03:58:10;;;;;;;15.82;9.02;;;;;;;;;;5022674;28;20044;-76
2022/11/06 04:00:38;;;;;;;13.43;10.10;;;;;;;;;;5028141;28;20357;-76
2022/11/06 04:03:06;;;;;;;19.90;11.52;;;;;;;;;;4990923;28;20130;-75
2022/11/06 04:05:35;;;;;;;12.73;9.05;;;;;;;;;;5009578;28;20975;-76
2022/11/06 04:16:21;;;;;;;15.00;10.02;;;;;;;;;;5021674;28;20067;-75
2022/11/06 04:18:47;;;;;;;16.30;10.65;;;;;;;;;;5011332;28;20044;-76
2022/11/06 04:21:30;;;;;;;14.70;11.27;;;;;;;;;;5017540;28;20118;-76
2022/11/06 04:26:54;;;;;;;14.45;8.95;;;;;;;;;;5013296;28;20103;-76
2022/11/06 04:29:38;;;;;;;18.63;11.07;;;;;;;;;;5001498;28;20558;-76
2022/11/06 04:32:11;;;;;;;16.65;8.80;;;;;;;;;;5024990;28;20049;-73
2022/11/06 04:34:48;;;;;;;11.07;8.27;;;;;;;;;;5027295;28;21076;-75
2022/11/06 04:37:37;;;;;;;9.50;7.93;;;;;;;;;;5018908;28;20396;-75
2022/11/06 04:40:33;;;;;;;16.80;10.82;;;;;;;;;;4980871;28;20056;-74
2022/11/06 04:43:02;;;;;;;11.77;8.43;;;;;;;;;;5003021;28;20117;-75
2022/11/06 04:45:34;;;;;;;12.77;9.75;;;;;;;;;;5018684;28;20080;-74
2022/11/06 04:48:01;;;;;;;10.77;8.82;;;;;;;;;;5020418;28;20048;-75
2022/11/06 04:50:28;;;;;;;13.57;10.13;;;;;;;;;;5018659;28;20045;-74
2022/11/06 04:52:55;;;;;;;16.20;10.40;;;;;;;;;;5025901;28;20055;-75
2022/11/06 04:55:22;;;;;;;15.85;8.63;;;;;;;;;;5025755;28;20055;-75
2022/11/06 04:57:48;;;;;;;12.73;9.35;;;;;;;;;;5035342;28;20045;-75
2022/11/06 05:00:14;;;;;;;12.75;9.80;;;;;;;;;;5003197;28;20048;-75
2022/11/06 05:02:41;;;;;;;10.50;7.32;;;;;;;;;;5003949;28;20395;-75
2022/11/06 05:05:07;;;;;;;15.88;9.20;;;;;;;;;;4998274;28;20044;-75
2022/11/06 05:07:33;;;;;;;11.27;8.32;;;;;;;;;;5005892;28;20072;-75
2022/11/06 05:09:59;;;;;;;14.60;7.97;;;;;;;;;;4993931;28;20492;-75
2022/11/06 05:12:25;;;;;;;18.95;9.43;;;;;;;;;;5007330;28;20374;-75
2022/11/06 05:14:51;;;;;;;12.55;9.30;;;;;;;;;;5010600;28;20576;-75
2022/11/06 05:17:17;;;;;;;10.80;8.02;;;;;;;;;;5011439;28;20045;-74
2022/11/06 05:19:43;;;;;;;15.65;9.55;;;;;;;;;;5006562;28;20080;-76
2022/11/06 05:24:54;;;;;;;11.32;8.15;;;;;;;;;;5008039;28;20144;-76
2022/11/06 05:27:20;;;;;;;10.60;7.75;;;;;;;;;;5008970;28;20080;-75
2022/11/06 05:29:46;;;;;;;16.08;8.70;;;;;;;;;;5008198;28;20040;-73
2022/11/06 05:32:12;;;;;;;9.48;6.90;;;;;;;;;;5013225;28;20056;-74
2022/11/06 05:34:41;;;;;;;13.38;8.95;;;;;;;;;;5009879;28;20037;-75
2022/11/06 05:37:07;;;;;;;14.82;9.68;;;;;;;;;;5000733;28;20056;-75
2022/11/06 05:39:35;;;;;;;12.55;8.23;;;;;;;;;;5009181;28;20041;-74
2022/11/06 05:42:01;;;;;;;12.38;8.57;;;;;;;;;;5010531;28;20048;-75
2022/11/06 05:44:27;;;;;;;12.65;9.13;;;;;;;;;;5014201;28;20041;-75
2022/11/06 05:46:54;;;;;;;15.25;8.98;;;;;;;;;;5013388;28;20044;-74
2022/11/06 05:49:20;;;;;;;14.52;9.20;;;;;;;;;;5028010;28;20045;-74
2022/11/06 05:51:46;;;;;;;15.52;8.48;;;;;;;;;;5017376;28;20075;-75
2022/11/06 05:54:12;;;;;;;10.93;7.45;;;;;;;;;;5038763;28;20171;-74
2022/11/06 05:56:38;;;;;;;19.98;8.07;;;;;;;;;;5020201;28;20715;-74
2022/11/06 05:59:04;;;;;;;15.00;8.50;;;;;;;;;;5016975;28;20068;-75
2022/11/06 06:01:30;;;;;;;10.73;6.45;;;;;;;;;;4994654;28;20465;-74
2022/11/06 06:03:56;;;;;;;10.75;6.22;;;;;;;;;;5018483;28;20033;-74
2022/11/06 06:06:23;;;;;;;11.52;7.40;;;;;;;;;;5015182;28;20045;-75
2022/11/06 06:08:49;;;;;;;10.73;7.47;;;;;;;;;;4993907;28;20072;-74
2022/11/06 06:11:15;;;;;;;12.20;6.88;;;;;;;;;;5014823;28;20056;-74
2022/11/06 06:13:41;;;;;;;13.93;7.88;;;;;;;;;;5034049;28;20844;-74
2022/11/06 06:16:07;;;;;;;13.93;8.35;;;;;;;;;;5018616;28;20800;-75
2022/11/06 06:18:33;;;;;;;14.32;5.80;;;;;;;;;;5015199;28;20186;-73
2022/11/06 06:20:59;;;;;;;12.02;7.25;;;;;;;;;;5016531;28;20803;-74
2022/11/06 06:23:25;;;;;;;13.35;7.35;;;;;;;;;;5018524;28;20064;-74
2022/11/06 06:25:51;;;;;;;14.52;7.38;;;;;;;;;;5016170;28;20041;-74
2022/11/06 06:28:17;;;;;;;7.80;5.93;;;;;;;;;;5011070;28;20041;-74
2022/11/06 06:30:43;;;;;;;13.15;7.45;;;;;;;;;;5029239;28;20045;-74
2022/11/06 06:33:09;;;;;;;14.75;7.38;;;;;;;;;;5032391;28;20107;-74
2022/11/06 06:35:35;;;;;;;12.45;6.90;;;;;;;;;;5038642;28;20104;-75
2022/11/06 06:38:01;;;;;;;13.90;7.22;;;;;;;;;;5023640;28;20504;-74
2022/11/06 06:40:28;;;;;;;12.85;6.53;;;;;;;;;;4986896;28;20075;-74
2022/11/06 06:42:55;;;;;;;10.52;5.07;;;;;;;;;;5011959;28;20098;-74
2022/11/06 06:45:22;;;;;;;10.52;6.28;;;;;;;;;;5008926;28;20399;-74
2022/11/06 06:47:48;;;;;;;12.40;5.43;;;;;;;;;;4993181;28;20064;-74
2022/11/06 06:50:14;;;;;;;9.40;5.25;;;;;;;;;;4988191;28;20131;-74
2022/11/06 06:52:40;;;;;;;9.88;5.50;;;;;;;;;;4996435;28;20040;-74
2022/11/06 06:55:06;;;;;;;15.43;6.50;;;;;;;;;;5007485;28;20072;-75
2022/11/06 06:57:33;;;;;;;9.85;6.03;;;;;;;;;;5012183;28;20175;-74
2022/11/06 06:59:59;;;;;;;12.88;6.05;;;;;;;;;;5013670;28;20515;-75
2022/11/06 07:02:25;;;;;;;10.88;7.07;;;;;;;;;;5014651;28;20143;-74
2022/11/06 07:04:51;;;;;;;11.68;5.35;;;;;;;;;;5003966;28;20040;-74
2022/11/06 07:07:17;;;;;;;6.90;5.45;;;;;;;;;;4991542;28;20617;-74
2022/11/06 07:09:43;;;;;;;15.73;5.88;;;;;;;;;;5006089;28;20151;-74
2022/11/06 07:12:09;;;;;;;11.10;5.68;;;;;;;;;;5006452;28;20055;-75
2022/11/06 07:14:35;;;;;;;13.98;5.65;;;;;;;;;;4990335;28;20047;-75
2022/11/06 07:17:01;;;;;;;8.95;4.72;;;;;;;;;;5009905;28;20056;-75
2022/11/06 07:19:27;;;;;;;10.07;5.28;;;;;;;;;;5001183;28;20040;-76
2022/11/06 07:21:53;;;;;;;10.13;4.97;;;;;;;;;;5023971;28;20049;-76
2022/11/06 07:24:20;;;;;;;16.15;5.50;;;;;;;;;;5026029;28;20063;-75
2022/11/06 07:26:46;;;;;;;9.05;5.32;;;;;;;;;;4993098;28;20952;-75
2022/11/06 07:29:12;;;;;;;10.27;5.32;;;;;;;;;;5001157;28;20132;-72
2022/11/06 07:31:38;;;;;;;12.30;5.40;;;;;;;;;;5005981;28;20772;-72
2022/11/06 07:34:04;;;;;;;11.88;4.90;;;;;;;;;;4994950;28;21779;-74
2022/11/06 07:36:31;;;;;;;9.50;4.80;;;;;;;;;;5004503;28;20404;-74
2022/11/06 07:38:57;;;;;;;12.60;5.30;;;;;;;;;;5009051;28;20085;-74
2022/11/06 07:41:23;;;;;;;11.85;5.25;;;;;;;;;;5008527;28;20084;-74
2022/11/06 07:43:49;;;;;;;10.45;5.47;;;;;;;;;;4971014;28;21988;-74
2022/11/06 07:46:15;;;;;;;13.05;5.47;;;;;;;;;;5006692;28;20353;-74
2022/11/06 07:48:42;;;;;;;8.63;4.47;;;;;;;;;;5007010;28;20140;-75
2022/11/06 07:51:10;;;;;;;17.05;5.03;;;;;;;;;;5011405;28;20060;-75
2022/11/06 07:53:38;;;;;;;14.63;5.28;;;;;;;;;;5015702;28;20068;-75
2022/11/06 07:56:07;;;;;;;8.80;4.45;;;;;;;;;;4986175;28;20046;-75
2022/11/06 07:58:33;;;;;;;14.73;5.40;;;;;;;;;;5034114;28;20053;-75
2022/11/06 08:01:00;;;;;;;11.88;4.18;;;;;;;;;;5021124;28;20607;-74
2022/11/06 08:03:28;;;;;;;11.73;4.95;;;;;;;;;;5024287;28;20041;-75
2022/11/06 08:05:55;;;;;;;14.25;4.40;;;;;;;;;;5055313;28;20048;-74
2022/11/06 08:08:21;;;;;;;9.68;3.88;;;;;;;;;;5040576;28;20066;-74
2022/11/06 08:10:47;;;;;;;11.10;4.72;;;;;;;;;;5030433;28;20033;-74
2022/11/06 08:13:14;;;;;;;16.88;4.72;;;;;;;;;;5045466;28;20063;-75
2022/11/06 08:15:41;;;;;;;9.48;4.95;;;;;;;;;;5036306;28;20119;-75
2022/11/06 08:18:08;;;;;;;11.02;4.22;;;;;;;;;;5001868;28;21487;-75
2022/11/06 08:20:35;;;;;;;10.82;4.38;;;;;;;;;;5020045;28;20049;-74
2022/11/06 08:23:01;;;;;;;8.43;4.18;;;;;;;;;;5019825;28;20059;-74
2022/11/06 08:25:28;;;;;;;11.70;3.92;;;;;;;;;;5020002;28;20075;-74
2022/11/06 08:27:55;;;;;;;10.57;3.58;;;;;;;;;;5016621;28;20079;-75
2022/11/06 08:30:21;;;;;;;16.63;4.90;;;;;;;;;;5018803;28;20111;-75
2022/11/06 08:32:47;;;;;;;11.52;4.38;;;;;;;;;;5017418;28;20086;-75
2022/11/06 08:35:13;;;;;;;15.20;5.38;;;;;;;;;;5037103;28;20037;-75
2022/11/06 08:37:39;;;;;;;13.40;5.50;;;;;;;;;;5002142;28;20751;-75
2022/11/06 08:40:06;;;;;;;8.65;4.93;;;;;;;;;;5018722;28;20156;-75
2022/11/06 08:42:32;;;;;;;10.05;4.60;;;;;;;;;;5001525;28;20029;-74
2022/11/06 08:44:58;;;;;;;10.25;4.75;;;;;;;;;;5036414;28;20068;-75
2022/11/06 08:47:24;;;;;;;13.13;5.45;;;;;;;;;;4994433;28;20044;-75
2022/11/06 08:49:50;;;;;;;13.45;5.30;;;;;;;;;;5002357;28;20048;-75
2022/11/06 08:52:16;;;;;;;12.73;5.25;;;;;;;;;;5019383;28;20527;-75
2022/11/06 08:54:42;;;;;;;9.88;4.28;;;;;;;;;;5019111;28;20439;-75
2022/11/06 08:57:08;;;;;;;11.00;4.72;;;;;;;;;;5007588;28;20059;-75
2022/11/06 08:59:34;;;;;;;13.82;5.40;;;;;;;;;;5035790;28;20040;-73
2022/11/06 09:02:01;;;;;;;12.95;5.03;;;;;;;;;;5001611;28;20052;-75
2022/11/06 09:04:30;;;;;;;11.43;4.93;;;;;;;;;;5028750;28;20048;-75
2022/11/06 09:06:58;;;;;;;13.65;4.72;;;;;;;;;;5016997;28;20448;-75
2022/11/06 09:09:30;;;;;;;13.38;4.97;;;;;;;;;;5023275;28;20142;-75
2022/11/06 09:11:57;;;;;;;12.13;4.40;;;;;;;;;;4990851;28;20079;-75
2022/11/06 09:14:23;;;;;;;11.30;4.03;;;;;;;;;;5016782;28;20054;-75
2022/11/06 09:16:49;;;;;;;8.77;4.28;;;;;;;;;;5018267;28;20036;-75
2022/11/06 09:19:15;;;;;;;10.05;4.18;;;;;;;;;;5017373;28;20053;-75
2022/11/06 09:21:42;;;;;;;12.43;4.20;;;;;;;;;;4999039;28;20042;-75
2022/11/06 09:24:08;;;;;;;8.15;4.07;;;;;;;;;;5015958;28;20077;-76
2022/11/06 09:26:34;;;;;;;10.02;4.28;;;;;;;;;;5015679;28;20508;-75
2022/11/06 09:29:00;;;;;;;7.60;4.03;;;;;;;;;;5014391;28;20109;-75
2022/11/06 09:31:26;;;;;;;12.05;4.50;;;;;;;;;;5015819;28;20045;-74
2022/11/06 09:33:53;;;;;;;11.80;4.00;;;;;;;;;;5015736;28;20479;-74
2022/11/06 09:36:20;;;;;;;16.50;4.30;;;;;;;;;;5015778;28;20056;-74
2022/11/06 09:38:46;;;;;;;12.82;4.25;;;;;;;;;;5016272;28;20042;-74
2022/11/06 09:41:18;;;;;;;10.82;3.70;;;;;;;;;;5020765;28;20056;-75
2022/11/06 09:44:01;;;;;;;10.98;4.22;;;;;;;;;;5027077;28;20586;-74
2022/11/06 09:46:29;;;;;;;12.93;4.20;;;;;;;;;;5038239;28;20053;-74
2022/11/06 09:49:17;;;;;;;10.20;3.33;;;;;;;;;;5039675;28;20045;-73
2022/11/06 09:51:52;;;;;;;6.22;2.67;;;;;;;;;;5003576;28;20736;-73
2022/11/06 09:54:22;;;;;;;9.00;2.97;;;;;;;;;;4998831;28;20791;-74
2022/11/06 09:56:50;;;;;;;8.38;3.30;;;;;;;;;;5013814;28;20050;-74
2022/11/06 09:59:18;;;;;;;11.52;3.47;;;;;;;;;;5012699;28;20053;-73
2022/11/06 10:01:53;;;;;;;10.10;2.72;;;;;;;;;;5014854;28;20038;-73
2022/11/06 10:04:49;;;;;;;8.23;2.92;;;;;;;;;;5013418;28;20041;-74
2022/11/06 10:07:27;;;;;;;4.90;2.70;;;;;;;;;;4976321;28;20068;-73
2022/11/06 10:09:54;;;;;;;6.57;2.75;;;;;;;;;;5009310;28;20164;-74
2022/11/06 10:12:20;;;;;;;6.03;2.90;;;;;;;;;;5012947;28;20048;-74
2022/11/06 10:14:46;;;;;;;10.20;2.97;;;;;;;;;;5010448;28;20037;-74
2022/11/06 10:17:15;;;;;;;8.43;2.72;;;;;;;;;;5004528;28;20041;-74
2022/11/06 10:19:50;;;;;;;9.45;3.20;;;;;;;;;;5011250;28;20816;-74
2022/11/06 10:22:17;;;;;;;12.13;3.75;;;;;;;;;;5012013;28;20765;-73
2022/11/06 10:24:46;;;;;;;12.40;2.55;;;;;;;;;;4969043;28;20056;-74
2022/11/06 10:27:17;;;;;;;9.15;3.00;;;;;;;;;;4979455;28;20033;-74
2022/11/06 10:29:43;;;;;;;9.02;2.60;;;;;;;;;;4997315;28;20041;-74
2022/11/06 10:32:09;;;;;;;9.45;3.53;;;;;;;;;;4998797;28;20131;-74
2022/11/06 10:34:38;;;;;;;12.75;3.75;;;;;;;;;;4996246;28;20140;-73
2022/11/06 10:37:10;;;;;;;7.97;3.00;;;;;;;;;;5001616;28;20647;-73
2022/11/06 10:39:36;;;;;;;9.40;2.88;;;;;;;;;;4998360;28;20049;-74
2022/11/06 10:42:05;;;;;;;9.85;3.15;;;;;;;;;;4997239;28;20046;-74
2022/11/06 10:44:38;;;;;;;10.15;3.38;;;;;;;;;;4988804;28;20140;-73
2022/11/06 10:47:12;;;;;;;7.13;3.83;;;;;;;;;;4997263;28;20143;-74
2022/11/06 10:49:45;;;;;;;11.45;4.10;;;;;;;;;;4979262;28;20049;-73
2022/11/06 10:52:30;;;;;;;6.65;2.47;;;;;;;;;;4987053;28;20041;-73
2022/11/06 10:55:03;;;;;;;5.13;3.13;;;;;;;;;;4989935;28;20041;-74
2022/11/06 10:57:41;;;;;;;6.88;2.85;;;;;;;;;;5003963;28;20046;-74
2022/11/06 11:00:14;;;;;;;9.25;3.95;;;;;;;;;;4995446;28;20041;-74
2022/11/06 11:02:46;;;;;;;8.75;2.97;;;;;;;;;;4996513;28;20493;-73
2022/11/06 11:05:13;;;;;;;8.02;3.45;;;;;;;;;;4993215;28;20045;-74
2022/11/06 11:07:39;;;;;;;12.35;3.40;;;;;;;;;;4990246;28;20048;-75
2022/11/06 11:10:25;;;;;;;8.55;2.50;;;;;;;;;;4982334;28;20045;-74
2022/11/06 11:12:52;;;;;;;9.43;2.38;;;;;;;;;;5006639;28;20061;-74
2022/11/06 11:15:20;;;;;;;6.90;2.78;;;;;;;;;;4975617;28;20543;-74
2022/11/06 11:18:04;;;;;;;7.28;2.53;;;;;;;;;;5007470;28;20049;-74
2022/11/06 11:20:32;;;;;;;7.63;2.33;;;;;;;;;;4978322;28;20513;-75
2022/11/06 11:23:05;;;;;;;10.65;2.38;;;;;;;;;;5014298;28;20168;-75
2022/11/06 11:25:31;;;;;;;6.50;1.98;;;;;;;;;;5007959;28;20059;-75
2022/11/06 11:27:57;;;;;;;3.25;1.48;;;;;;;;;;5037876;28;20050;-74
2022/11/06 11:30:28;;;;;;;9.52;2.97;;;;;;;;;;5027784;28;20073;-74
2022/11/06 11:32:56;;;;;;;7.90;3.13;;;;;;;;;;5014117;28;20049;-74
2022/11/06 11:35:28;;;;;;;6.72;2.50;;;;;;;;;;5012723;28;20385;-74
2022/11/06 11:38:10;;;;;;;7.00;2.72;;;;;;;;;;5015049;28;20107;-74
2022/11/06 11:40:37;;;;;;;6.60;2.60;;;;;;;;;;5013276;28;20049;-74
2022/11/06 11:43:23;;;;;;;10.43;2.80;;;;;;;;;;5011280;28;20895;-74
2022/11/06 11:46:02;;;;;;;9.45;3.40;;;;;;;;;;4992779;28;20041;-74
2022/11/06 11:48:41;;;;;;;5.82;2.17;;;;;;;;;;5010409;28;20053;-75
2022/11/06 11:51:19;;;;;;;6.13;2.25;;;;;;;;;;5016958;28;20149;-74
2022/11/06 11:53:45;;;;;;;9.80;2.55;;;;;;;;;;4988985;28;20045;-74
2022/11/06 11:56:19;;;;;;;7.68;2.78;;;;;;;;;;5020519;28;20037;-74
2022/11/06 11:58:50;;;;;;;8.75;2.60;;;;;;;;;;5015353;28;20141;-73
2022/11/06 12:01:16;;;;;;;9.25;3.35;;;;;;;;;;5017650;28;20060;-73
2022/11/06 12:03:44;;;;;;;7.15;2.70;;;;;;;;;;5016403;28;20037;-72
2022/11/06 12:06:12;;;;;;;8.02;2.65;;;;;;;;;;4998816;28;20045;-73
2022/11/06 12:08:41;;;;;;;8.77;2.97;;;;;;;;;;4993890;28;20234;-73
2022/11/06 12:11:07;;;;;;;8.32;3.22;;;;;;;;;;5009886;28;20049;-71
2022/11/06 12:13:33;;;;;;;6.32;3.00;;;;;;;;;;5023650;28;20049;-71
2022/11/06 12:16:04;;;;;;;9.60;3.15;;;;;;;;;;5033598;28;20450;-71
2022/11/06 12:18:36;;;;;;;7.82;3.53;;;;;;;;;;5031255;28;20048;-72
2022/11/06 12:21:05;;;;;;;7.95;2.90;;;;;;;;;;5007907;28;20049;-71
2022/11/06 12:23:31;;;;;;;8.15;3.20;;;;;;;;;;5019164;28;20068;-72
2022/11/06 12:26:16;;;;;;;5.60;3.15;;;;;;;;;;5018023;28;22165;-72
2022/11/06 12:28:43;;;;;;;8.63;3.72;;;;;;;;;;5008051;28;20052;-72
2022/11/06 12:31:15;;;;;;;6.18;3.03;;;;;;;;;;5018564;28;20390;-72
2022/11/06 12:33:42;;;;;;;11.25;3.28;;;;;;;;;;5019549;28;20078;-72
2022/11/06 12:36:10;;;;;;;10.05;3.40;;;;;;;;;;5032250;28;20713;-72
2022/11/06 12:38:42;;;;;;;7.18;3.22;;;;;;;;;;5018298;28;20584;-73
2022/11/06 12:41:21;;;;;;;7.82;2.90;;;;;;;;;;5017863;28;20038;-73
2022/11/06 12:43:48;;;;;;;8.20;2.90;;;;;;;;;;4985684;28;20045;-72
2022/11/06 12:46:30;;;;;;;13.70;3.17;;;;;;;;;;5017230;28;20048;-72
2022/11/06 12:49:11;;;;;;;7.63;2.78;;;;;;;;;;5015377;28;20378;-72
2022/11/06 12:51:46;;;;;;;9.73;3.05;;;;;;;;;;5016623;28;20184;-73
2022/11/06 12:54:18;;;;;;;10.95;2.40;;;;;;;;;;5013756;28;20045;-74
2022/11/06 12:56:44;;;;;;;8.73;2.47;;;;;;;;;;5014824;28;20132;-74
2022/11/06 12:59:11;;;;;;;10.90;2.80;;;;;;;;;;5013310;28;20052;-73
2022/11/06 13:01:52;;;;;;;8.57;2.47;;;;;;;;;;5012180;28;20050;-73
2022/11/06 13:04:33;;;;;;;6.63;1.67;;;;;;;;;;5018609;28;20137;-72
2022/11/06 13:07:18;;;;;;;6.43;1.88;;;;;;;;;;5039296;28;20045;-71
2022/11/06 13:10:06;;;;;;;3.15;1.50;;;;;;;;;;5039113;28;20049;-72
2022/11/06 13:12:38;;;;;;;8.77;1.73;;;;;;;;;;5015389;28;20204;-72
2022/11/06 13:15:04;;;;;;;5.63;2.10;;;;;;;;;;5010121;28;20126;-73
2022/11/06 13:17:31;;;;;;;4.90;2.10;;;;;;;;;;5011332;28;20642;-73
2022/11/06 13:20:27;;;;;;;6.20;2.08;;;;;;;;;;4998499;28;20056;-73
2022/11/06 13:22:56;;;;;;;5.28;2.20;;;;;;;;;;4946764;28;20058;-73
2022/11/06 13:25:26;;;;;;;6.63;2.28;;;;;;;;;;5013367;28;20408;-72
2022/11/06 13:27:58;;;;;;;5.70;1.75;;;;;;;;;;5013215;28;20040;-72
2022/11/06 13:30:24;;;;;;;7.07;1.90;;;;;;;;;;5031217;28;21277;-72
2022/11/06 13:32:50;;;;;;;5.20;1.48;;;;;;;;;;4997209;28;20136;-72
2022/11/06 13:35:18;;;;;;;6.95;2.35;;;;;;;;;;5014369;28;20072;-73
2022/11/06 13:37:46;;;;;;;4.88;1.90;;;;;;;;;;5014497;28;20791;-73
2022/11/06 13:40:30;;;;;;;8.63;2.20;;;;;;;;;;5010432;28;20076;-72
2022/11/06 13:43:02;;;;;;;4.40;1.70;;;;;;;;;;5030994;28;20041;-73
2022/11/06 13:45:33;;;;;;;4.78;2.05;;;;;;;;;;5011048;28;20219;-72
2022/11/06 13:48:05;;;;;;;7.28;2.20;;;;;;;;;;5010525;28;20049;-72
2022/11/06 13:50:54;;;;;;;7.25;2.55;;;;;;;;;;5015696;28;20073;-72
2022/11/06 13:53:31;;;;;;;7.20;1.90;;;;;;;;;;5021948;28;20098;-72
2022/11/06 13:56:16;;;;;;;6.53;1.98;;;;;;;;;;5029353;28;20086;-73
2022/11/06 13:58:45;;;;;;;2.50;1.58;;;;;;;;;;5001132;28;20978;-72
2022/11/06 14:01:23;;;;;;;7.32;2.22;;;;;;;;;;5010523;28;20118;-72
2022/11/06 14:04:08;;;;;;;7.50;2.63;;;;;;;;;;5010440;28;20128;-72
2022/11/06 14:06:34;;;;;;;7.50;2.60;;;;;;;;;;5013546;28;20788;-72
2022/11/06 14:09:04;;;;;;;7.57;2.67;;;;;;;;;;4995622;28;20055;-73
2022/11/06 14:11:32;;;;;;;5.95;2.30;;;;;;;;;;5012084;28;20044;-73
2022/11/06 14:14:00;;;;;;;8.52;2.70;;;;;;;;;;4995752;28;20048;-73
2022/11/06 14:16:37;;;;;;;11.63;4.60;;;;;;;;;;5029659;28;20380;-72
2022/11/06 14:19:12;;;;;;;17.17;4.70;;;;;;;;;;5012205;28;20084;-72
2022/11/06 14:21:44;;;;;;;9.13;3.95;;;;;;;;;;5011667;28;20071;-72
2022/11/06 14:24:31;;;;;;;9.43;4.78;;;;;;;;;;5010212;28;20053;-72
2022/11/06 14:26:57;;;;;;;12.95;5.22;;;;;;;;;;5012693;28;20565;-72
2022/11/06 14:29:26;;;;;;;13.52;3.75;;;;;;;;;;5000216;28;20040;-73
2022/11/06 14:32:05;;;;;;;8.70;4.28;;;;;;;;;;5027515;28;20055;-73
2022/11/06 14:34:34;;;;;;;7.78;3.05;;;;;;;;;;5004945;28;20044;-72
2022/11/06 14:37:19;;;;;;;4.88;2.47;;;;;;;;;;5008171;28;20401;-72
2022/11/06 14:39:51;;;;;;;6.72;2.53;;;;;;;;;;4996810;28;20057;-72
2022/11/06 14:42:23;;;;;;;6.53;2.15;;;;;;;;;;5011725;28;20048;-72
2022/11/06 14:44:54;;;;;;;5.80;2.35;;;;;;;;;;5008751;28;20139;-72
2022/11/06 14:47:23;;;;;;;9.52;3.60;;;;;;;;;;5013671;28;20467;-72
2022/11/06 14:49:51;;;;;;;6.43;2.50;;;;;;;;;;5013781;28;20053;-72
2022/11/06 14:52:18;;;;;;;9.35;3.28;;;;;;;;;;5033917;28;20041;-71
2022/11/06 14:54:56;;;;;;;8.75;4.65;;;;;;;;;;5015996;28;20056;-71
2022/11/06 14:57:41;;;;;;;8.70;3.50;;;;;;;;;;5012530;28;20094;-71
2022/11/06 15:00:07;;;;;;;4.88;1.90;;;;;;;;;;5007392;28;20703;-72